createdAt,value
2023-02-04T00:00:16.639Z,51.03
2023-02-04T00:02:47.164Z,47.40
2023-02-04T00:05:14.519Z,49.78
2023-02-04T00:07:41.730Z,48.60
2023-02-04T00:10:15.309Z,49.78
2023-02-04T00:12:42.636Z,51.88
2023-02-04T00:15:10.867Z,49.25
2023-02-04T00:17:38.298Z,50.20
2023-02-04T00:20:06.066Z,50.65
2023-02-04T00:22:33.115Z,49.20
2023-02-04T00:25:00.158Z,53.28
2023-02-04T00:27:27.311Z,49.65
2023-02-04T00:29:55.060Z,49.97
2023-02-04T00:32:22.332Z,52.67
2023-02-04T00:34:49.762Z,51.35
2023-02-04T00:37:17.035Z,48.95
2023-02-04T00:39:51.565Z,54.30
2023-02-04T00:42:18.931Z,54.00
2023-02-04T00:44:46.261Z,56.33
2023-02-04T00:47:13.751Z,56.08
2023-02-04T00:49:41.685Z,55.53
2023-02-04T00:52:14.846Z,49.83
2023-02-04T00:54:41.973Z,49.47
2023-02-04T00:57:11.620Z,53.20
2023-02-04T00:59:39.177Z,53.20
2023-02-04T01:02:13.581Z,55.88
2023-02-04T01:04:40.723Z,51.83
2023-02-04T01:07:07.686Z,51.00
2023-02-04T01:09:34.842Z,53.80
2023-02-04T01:12:02.027Z,54.47
2023-02-04T01:14:29.165Z,54.78
2023-02-04T01:16:56.189Z,51.90
2023-02-04T01:19:24.386Z,51.65
2023-02-04T01:21:51.408Z,53.72
2023-02-04T01:24:18.536Z,49.92
2023-02-04T01:27:04.414Z,53.30
2023-02-04T01:29:36.154Z,50.10
2023-02-04T01:32:03.169Z,51.77
2023-02-04T01:34:31.785Z,52.35
2023-02-04T01:36:58.867Z,55.05
2023-02-04T01:39:26.007Z,49.72
2023-02-04T01:41:53.123Z,51.70
2023-02-04T01:44:20.131Z,52.97
2023-02-04T01:46:47.145Z,53.13
2023-02-04T01:49:14.437Z,47.17
2023-02-04T01:51:41.886Z,52.28
2023-02-04T01:54:12.495Z,54.55
2023-02-04T01:56:40.938Z,48.00
2023-02-04T01:59:15.934Z,50.50
2023-02-04T02:01:44.341Z,51.88
2023-02-04T02:04:17.638Z,53.20
2023-02-04T02:06:52.474Z,46.33
2023-02-04T02:09:19.762Z,48.53
2023-02-04T02:11:47.071Z,49.00
2023-02-04T02:14:14.421Z,52.08
2023-02-04T02:16:41.936Z,51.15
2023-02-04T02:19:14.898Z,50.53
2023-02-04T02:21:53.200Z,51.42
2023-02-04T02:24:27.362Z,49.60
2023-02-04T02:26:56.468Z,49.05
2023-02-04T02:29:25.866Z,45.70
2023-02-04T02:31:54.571Z,49.05
2023-02-04T02:34:21.612Z,47.90
2023-02-04T02:36:48.630Z,49.08
2023-02-04T02:39:15.698Z,45.70
2023-02-04T02:41:42.740Z,51.17
2023-02-04T02:44:11.552Z,49.50
2023-02-04T02:46:43.662Z,47.78
2023-02-04T02:49:17.497Z,49.85
2023-02-04T02:51:45.572Z,47.70
2023-02-04T02:54:31.119Z,46.15
2023-02-04T02:57:01.557Z,47.83
2023-02-04T02:59:28.605Z,48.35
2023-02-04T03:01:59.640Z,49.85
2023-02-04T03:04:31.298Z,46.08
2023-02-04T03:06:58.732Z,46.58
2023-02-04T03:09:27.070Z,50.70
2023-02-04T03:11:54.488Z,50.58
2023-02-04T03:14:24.305Z,46.25
2023-02-04T03:16:53.468Z,46.33
2023-02-04T03:19:21.302Z,48.17
2023-02-04T03:21:49.741Z,47.75
2023-02-04T03:24:16.961Z,45.05
2023-02-04T03:26:44.228Z,48.65
2023-02-04T03:29:12.718Z,46.58
2023-02-04T03:31:39.996Z,45.50
2023-02-04T03:34:07.826Z,43.58
2023-02-04T03:36:34.840Z,46.28
2023-02-04T03:39:02.031Z,47.67
2023-02-04T03:41:30.356Z,43.63
2023-02-04T03:43:57.423Z,47.22
2023-02-04T03:46:26.021Z,44.30
2023-02-04T03:48:53.131Z,44.10
2023-02-04T03:51:20.147Z,48.28
2023-02-04T03:53:47.156Z,45.03
2023-02-04T03:56:14.352Z,47.67
2023-02-04T03:58:44.438Z,47.42
2023-02-04T04:01:11.503Z,45.38
2023-02-04T04:03:38.591Z,45.17
2023-02-04T04:06:08.760Z,44.65
2023-02-04T04:08:36.329Z,44.60
2023-02-04T04:11:03.713Z,45.80
2023-02-04T04:13:30.778Z,48.28
2023-02-04T04:15:57.995Z,43.60
2023-02-04T04:18:24.994Z,43.33
2023-02-04T04:20:51.985Z,47.80
2023-02-04T04:23:18.979Z,45.60
2023-02-04T04:25:46.016Z,43.63
2023-02-04T04:28:13.196Z,42.03
2023-02-04T04:30:40.314Z,44.75
2023-02-04T04:33:07.409Z,40.33
2023-02-04T04:35:34.859Z,44.67
2023-02-04T04:38:02.766Z,41.90
2023-02-04T04:40:30.080Z,44.22
2023-02-04T04:42:57.560Z,43.40
2023-02-04T04:45:24.518Z,44.20
2023-02-04T04:47:51.593Z,41.65
2023-02-04T04:50:18.716Z,41.10
2023-02-04T04:52:45.765Z,42.47
2023-02-04T04:55:12.819Z,46.60
2023-02-04T04:57:39.916Z,41.95
2023-02-04T05:00:08.391Z,41.75
2023-02-04T05:02:35.390Z,44.30
2023-02-04T05:05:02.508Z,42.05
2023-02-04T05:07:29.511Z,39.92
2023-02-04T05:09:56.487Z,43.42
2023-02-04T05:12:23.574Z,42.78
2023-02-04T05:14:50.673Z,41.05
2023-02-04T05:17:18.177Z,39.88
2023-02-04T05:19:45.459Z,44.00
2023-02-04T05:22:12.924Z,44.38
2023-02-04T05:24:39.916Z,40.45
2023-02-04T05:27:06.950Z,40.67
2023-02-04T05:29:34.012Z,40.72
2023-02-04T05:32:01.086Z,43.97
2023-02-04T05:34:28.166Z,40.15
2023-02-04T05:36:55.236Z,42.15
2023-02-04T05:39:22.679Z,40.65
2023-02-04T05:41:49.884Z,42.03
2023-02-04T05:44:16.938Z,41.00
2023-02-04T05:47:28.531Z,38.03
2023-02-04T05:50:16.440Z,38.80
2023-02-04T05:53:26.538Z,39.75
2023-02-04T05:59:08.339Z,41.90
2023-02-04T06:02:51.310Z,39.08
2023-02-04T06:12:33.529Z,39.70
2023-02-04T06:15:44.962Z,40.92
2023-02-04T06:21:39.132Z,37.33
2023-02-04T06:24:34.193Z,39.53
2023-02-04T06:27:40.076Z,41.00
2023-02-04T06:30:39.433Z,41.35
2023-02-04T06:40:12.746Z,38.00
2023-02-04T06:57:35.153Z,38.03
2023-02-04T07:00:02.348Z,38.22
2023-02-04T07:02:29.414Z,39.10
2023-02-04T07:05:28.420Z,36.30
2023-02-04T07:07:55.521Z,37.67
2023-02-04T07:10:22.467Z,38.95
2023-02-04T07:12:49.554Z,37.28
2023-02-04T07:15:17.138Z,37.63
2023-02-04T07:17:44.294Z,37.25
2023-02-04T07:20:12.904Z,39.35
2023-02-04T07:22:39.937Z,38.55
2023-02-04T07:25:07.316Z,40.08
2023-02-04T07:27:34.471Z,37.35
2023-02-04T07:30:01.546Z,37.63
2023-02-04T07:32:32.863Z,37.60
2023-02-04T07:35:00.931Z,39.95
2023-02-04T07:38:10.083Z,38.97
2023-02-04T07:41:05.112Z,38.42
2023-02-04T07:50:18.518Z,40.40
2023-02-04T07:53:08.987Z,40.45
2023-02-04T07:56:24.658Z,39.38
2023-02-04T08:05:38.045Z,39.70
2023-02-04T08:08:20.188Z,40.45
2023-02-04T08:11:21.321Z,40.47
2023-02-04T08:13:52.035Z,40.58
2023-02-04T08:16:19.226Z,37.30
2023-02-04T08:18:46.231Z,41.00
2023-02-04T08:21:13.190Z,42.03
2023-02-04T08:23:41.930Z,41.45
2023-02-04T08:26:12.428Z,41.20
2023-02-04T08:28:39.604Z,41.38
2023-02-04T08:31:07.460Z,38.92
2023-02-04T08:33:34.617Z,41.33
2023-02-04T08:36:01.569Z,40.08
2023-02-04T08:38:29.168Z,39.65
2023-02-04T08:40:56.520Z,38.97
2023-02-04T08:43:23.649Z,43.67
2023-02-04T08:45:50.602Z,38.15
2023-02-04T08:48:17.674Z,36.22
2023-02-04T08:50:44.614Z,39.03
2023-02-04T08:53:12.160Z,38.03
2023-02-04T08:55:39.413Z,37.20
2023-02-04T08:58:06.456Z,39.80
2023-02-04T09:00:33.737Z,38.15
2023-02-04T09:03:00.983Z,39.53
2023-02-04T09:05:28.032Z,38.78
2023-02-04T09:07:55.018Z,38.55
2023-02-04T09:10:21.957Z,40.95
2023-02-04T09:12:49.123Z,40.38
2023-02-04T09:15:16.145Z,38.78
2023-02-04T09:17:44.069Z,40.00
2023-02-04T09:20:11.683Z,43.85
2023-02-04T09:22:38.903Z,41.78
2023-02-04T09:25:06.186Z,39.10
2023-02-04T09:27:33.129Z,44.00
2023-02-04T09:30:00.307Z,46.53
2023-02-04T09:32:27.280Z,39.58
2023-02-04T09:34:54.200Z,46.72
2023-02-04T09:37:21.182Z,41.13
2023-02-04T09:39:48.255Z,45.58
2023-02-04T09:42:16.086Z,47.65
2023-02-04T09:44:45.414Z,41.80
2023-02-04T09:47:15.730Z,42.20
2023-02-04T09:49:47.483Z,40.63
2023-02-04T09:54:43.624Z,42.13
2023-02-04T09:57:17.381Z,40.95
2023-02-04T09:59:45.210Z,44.33
2023-02-04T10:02:22.827Z,42.20
2023-02-04T10:04:51.899Z,42.47
2023-02-04T10:07:24.250Z,46.50
2023-02-04T10:10:00.821Z,45.10
2023-02-04T10:12:28.264Z,41.20
2023-02-04T10:14:55.509Z,42.75
2023-02-04T10:17:27.483Z,42.50
2023-02-04T10:19:54.436Z,43.47
2023-02-04T10:22:22.809Z,41.45
2023-02-04T10:30:53.401Z,44.00
2023-02-04T10:33:27.289Z,45.58
2023-02-04T10:35:56.982Z,44.70
2023-02-04T10:38:24.900Z,41.50
2023-02-04T12:16:18.649Z,48.80
2023-02-04T12:19:00.742Z,48.08
2023-02-04T12:52:23.767Z,46.33
2023-02-04T12:55:36.842Z,48.22
2023-02-04T12:58:04.245Z,43.85
2023-02-04T13:00:31.516Z,45.38
2023-02-04T13:03:05.456Z,44.30
2023-02-04T13:05:34.871Z,42.78
2023-02-04T13:11:05.476Z,44.00
2023-02-04T13:13:32.536Z,44.97
2023-02-04T13:15:59.698Z,46.50
2023-02-04T13:18:27.206Z,44.08
2023-02-04T13:27:11.451Z,43.72
2023-02-04T13:36:20.423Z,42.15
2023-02-04T15:17:16.652Z,36.50
2023-02-04T15:19:49.108Z,41.88
2023-02-04T15:22:16.414Z,42.28
2023-02-04T15:27:32.606Z,41.75
2023-02-04T15:30:11.159Z,44.75
2023-02-04T16:19:03.102Z,58.60
2023-02-04T18:18:57.560Z,40.33
2023-02-04T18:36:36.900Z,31.00
2023-02-04T18:39:25.669Z,30.27
2023-02-04T18:42:07.562Z,27.33
2023-02-04T18:44:38.285Z,29.52
2023-02-04T18:47:32.602Z,31.52
2023-02-04T18:50:16.265Z,26.70
2023-02-04T18:52:44.331Z,25.70
2023-02-04T18:55:27.733Z,26.23
2023-02-04T19:06:07.275Z,25.17
2023-02-04T19:08:44.514Z,23.27
2023-02-04T19:11:55.088Z,25.33
2023-02-04T19:14:38.892Z,23.48
2023-02-04T19:17:14.587Z,24.67
2023-02-04T19:19:46.301Z,21.38
2023-02-04T19:22:47.497Z,21.13
2023-02-04T19:26:23.261Z,19.95
2023-02-04T19:29:16.558Z,21.35
2023-02-04T19:31:46.601Z,19.50
2023-02-04T19:34:38.370Z,20.00
2023-02-04T19:37:27.439Z,19.88
2023-02-04T19:39:55.807Z,17.90
2023-02-04T19:42:34.737Z,17.90
2023-02-04T20:28:40.099Z,13.20
2023-02-04T20:31:28.738Z,14.40
2023-02-04T20:33:59.588Z,12.30
2023-02-04T20:36:26.899Z,12.60
2023-02-04T20:39:17.315Z,11.50
2023-02-04T20:41:44.373Z,13.48
2023-02-04T20:44:40.039Z,11.82
2023-02-04T20:47:18.208Z,12.20
2023-02-04T20:49:55.282Z,12.55
2023-02-04T20:52:40.837Z,13.88
2023-02-04T21:21:28.889Z,13.10
2023-02-04T21:23:56.150Z,10.73
2023-02-04T21:26:23.331Z,10.18
2023-02-04T21:28:50.552Z,13.50
2023-02-04T21:31:44.933Z,12.07
2023-02-04T21:34:12.495Z,10.77
2023-02-04T21:36:53.222Z,10.68
2023-02-04T21:39:23.893Z,11.50
2023-02-04T21:42:10.115Z,10.18
2023-02-04T21:44:38.201Z,11.15
2023-02-04T22:05:48.087Z,9.95
2023-02-04T22:31:43.490Z,10.90
2023-02-04T22:59:00.106Z,7.95
2023-02-04T23:13:32.375Z,5.80
2023-02-04T23:16:00.891Z,6.93
2023-02-04T23:33:30.652Z,6.80
2023-02-04T23:35:59.104Z,5.55
2023-02-04T23:41:29.483Z,5.78
2023-02-04T23:43:56.559Z,7.57
2023-02-04T23:46:23.586Z,5.60
2023-02-04T23:48:50.803Z,4.93
2023-02-04T23:51:17.838Z,4.97
2023-02-04T23:53:44.906Z,5.03
2023-02-04T23:56:12.132Z,5.75
2023-02-04T23:58:39.203Z,4.28
